TimeMST,TemperatureF,Dew PointF,Humidity,Sea Level PressureIn,VisibilityMPH,Wind Direction,Wind SpeedMPH,Gust SpeedMPH,PrecipitationIn,Events,Conditions,WindDirDegrees,DateUTC
12:53 AM,21.0,8.1,57,30.35,10.0,Variable,3.5,-,N/A,,Clear,0,2014-01-07 07:53:00
1:53 AM,18.0,10.9,74,30.34,10.0,Calm,Calm,-,N/A,,Clear,0,2014-01-07 08:53:00
2:53 AM,19.0,10.9,71,30.32,10.0,Calm,Calm,-,N/A,,Clear,0,2014-01-07 09:53:00
3:53 AM,21.9,9.0,58,30.29,10.0,SSW,6.9,-,N/A,,Clear,210,2014-01-07 10:53:00
4:53 AM,21.0,10.0,63,30.30,10.0,Variable,3.5,-,N/A,,Clear,0,2014-01-07 11:53:00
5:53 AM,21.9,10.0,60,30.30,10.0,South,6.9,-,N/A,,Overcast,190,2014-01-07 12:53:00
6:53 AM,19.9,8.1,60,30.29,10.0,SSE,6.9,-,N/A,,Clear,150,2014-01-07 13:53:00
7:53 AM,19.9,7.0,57,30.28,10.0,SSE,10.4,-,N/A,,Clear,160,2014-01-07 14:53:00
8:53 AM,21.0,9.0,60,30.27,10.0,Calm,Calm,-,N/A,,Overcast,0,2014-01-07 15:53:00
9:53 AM,24.1,10.9,57,30.29,10.0,South,4.6,-,N/A,,Overcast,170,2014-01-07 16:53:00
10:53 AM,26.1,14.0,60,30.30,-9999.0,Calm,Calm,-,N/A,,Overcast,0,2014-01-07 17:53:00
11:53 AM,27.0,12.0,53,30.28,10.0,North,-9999.0,-,N/A,,Unknown,0,2014-01-07 18:53:00
12:24 PM,26.1,15.1,63,30.18,2.5,NW,6.9,-,N/A,,Haze,320,2014-01-07 19:24:00
12:32 PM,24.1,18.0,77,30.18,1.0,North,5.8,-,N/A,Snow,Light Snow,360,2014-01-07 19:32:00
12:53 PM,25.0,19.0,78,30.25,4.0,ENE,5.8,-,N/A,,Haze,60,2014-01-07 19:53:00
1:16 PM,25.0,19.9,81,30.14,1.5,ESE,6.9,-,0.00,Snow,Light Snow,110,2014-01-07 20:16:00
1:37 PM,26.1,21.0,81,30.13,1.5,SSE,4.6,-,0.01,Snow,Light Snow,150,2014-01-07 20:37:00
1:53 PM,27.0,23.0,85,30.21,4.0,South,8.1,-,0.01,,Overcast,180,2014-01-07 20:53:00
2:13 PM,28.0,21.9,78,30.12,10.0,South,5.8,-,N/A,,Overcast,180,2014-01-07 21:13:00
2:53 PM,28.9,21.9,75,30.23,9.0,NNW,5.8,-,N/A,,Overcast,330,2014-01-07 21:53:00
3:30 PM,28.9,24.1,82,30.15,3.0,ENE,3.5,-,0.00,Snow,Light Snow,60,2014-01-07 22:30:00
3:53 PM,28.9,24.1,82,30.22,4.0,ENE,3.5,-,0.00,,Haze,70,2014-01-07 22:53:00
4:53 PM,28.0,23.0,81,30.23,4.0,Calm,Calm,-,N/A,,Haze,0,2014-01-07 23:53:00
5:53 PM,27.0,23.0,85,30.22,4.0,Calm,Calm,-,N/A,,Overcast,0,2014-01-08 00:53:00
6:53 PM,23.0,19.9,88,30.23,2.5,NNW,5.8,-,N/A,,Mostly Cloudy,330,2014-01-08 01:53:00
7:01 PM,21.9,19.9,92,30.14,3.0,NNW,4.6,-,N/A,,Mostly Cloudy,330,2014-01-08 02:01:00
7:53 PM,21.9,18.0,85,30.24,3.0,Calm,Calm,-,N/A,,Overcast,0,2014-01-08 02:53:00
8:19 PM,23.0,19.9,88,30.13,2.5,Calm,Calm,-,N/A,,Partly Cloudy,0,2014-01-08 03:19:00
8:28 PM,23.0,19.9,88,30.14,3.0,NW,3.5,-,N/A,,Scattered Clouds,320,2014-01-08 03:28:00
8:53 PM,21.9,19.0,89,30.23,3.0,NW,3.5,-,N/A,,Mostly Cloudy,310,2014-01-08 03:53:00
9:53 PM,21.9,19.0,89,30.23,4.0,North,5.8,-,N/A,,Overcast,10,2014-01-08 04:53:00
10:53 PM,25.0,21.0,85,30.19,4.0,South,4.6,-,N/A,,Overcast,170,2014-01-08 05:53:00
11:53 PM,26.1,21.9,84,30.18,5.0,Calm,Calm,-,N/A,,Overcast,0,2014-01-08 06:53:00